createdAt,value
2022-10-13T00:04:51.308Z,15.53
2022-10-13T00:24:57.089Z,15.04
2022-10-13T00:45:03.299Z,16.03
2022-10-13T01:05:09.509Z,16.52
2022-10-13T01:25:15.306Z,15.77
2022-10-13T01:45:20.983Z,16.53
2022-10-13T02:05:27.155Z,16.29
2022-10-13T02:25:32.869Z,16.12
2022-10-13T02:45:38.563Z,17.91
2022-10-13T03:05:44.301Z,18.91
2022-10-13T03:25:50.477Z,22.78
2022-10-13T03:45:56.209Z,21.13
2022-10-13T04:06:01.945Z,20.19
2022-10-13T04:26:07.614Z,20.59
2022-10-13T04:46:13.419Z,21.27
2022-10-13T05:06:19.144Z,20.66
2022-10-13T05:26:25.344Z,19.55
2022-10-13T05:46:31.250Z,20.49
2022-10-13T06:06:37.521Z,19.69
2022-10-13T06:26:43.270Z,18.74
2022-10-13T06:46:49.241Z,18.64
2022-10-13T07:06:55.416Z,19.48
2022-10-13T07:27:06.755Z,19.23
2022-10-13T07:47:06.943Z,18.86
2022-10-13T08:07:12.736Z,18.77
2022-10-13T08:27:18.700Z,19.59
2022-10-13T08:47:24.638Z,19.79
2022-10-13T09:07:30.390Z,18.37
2022-10-13T09:27:36.565Z,19.51
2022-10-13T09:47:42.411Z,19.18
2022-10-13T10:07:48.139Z,18.29
2022-10-13T10:27:54.413Z,17.76
2022-10-13T10:48:00.644Z,17.09
2022-10-13T11:08:06.824Z,16.15
2022-10-13T11:28:12.788Z,15.23
2022-10-13T11:48:18.520Z,14.80
2022-10-13T12:08:24.675Z,12.90
2022-10-13T12:28:31.035Z,10.27
2022-10-13T12:48:36.616Z,8.45
2022-10-13T13:08:42.923Z,8.46
2022-10-13T13:28:48.790Z,8.24
2022-10-13T13:48:55.040Z,8.90
2022-10-13T14:09:01.278Z,9.36
2022-10-13T14:29:07.133Z,9.10
2022-10-13T14:49:13.350Z,9.36
2022-10-13T15:09:21.104Z,8.52
2022-10-13T15:29:24.793Z,8.52
2022-10-13T15:49:30.985Z,8.09
2022-10-13T16:09:37.126Z,9.02
2022-10-13T16:29:43.297Z,13.97
2022-10-13T16:49:49.466Z,9.39
2022-10-13T17:09:55.160Z,9.50
2022-10-13T17:30:00.944Z,8.34
2022-10-13T17:50:06.668Z,8.56
2022-10-13T18:10:12.897Z,8.84
2022-10-13T18:30:22.218Z,10.00
2022-10-13T18:50:23.856Z,9.35
2022-10-13T19:10:30.129Z,9.35
2022-10-13T19:30:35.837Z,8.68
2022-10-13T19:50:41.585Z,9.88
2022-10-13T20:10:47.325Z,9.31
2022-10-13T20:30:53.012Z,9.16
2022-10-13T20:50:58.851Z,9.51
2022-10-13T21:11:04.543Z,9.23
2022-10-13T21:31:10.256Z,8.95
2022-10-13T21:51:15.988Z,10.16
2022-10-13T22:11:22.186Z,12.86
2022-10-13T22:31:27.912Z,15.07
2022-10-13T22:51:33.667Z,16.83
2022-10-13T23:11:39.842Z,16.46
2022-10-13T23:31:46.053Z,15.79
2022-10-13T23:51:51.817Z,15.37
